Time,TemperatureF,DewpointF,PressureIn,WindDirection,WindDirectionDegrees,WindSpeedMPH,WindSpeedGustMPH,Humidity,HourlyPrecipIn,Conditions,Clouds,dailyrainin,SoftwareType,DateUTC
2013-02-11 00:01:00,52.7,37.0,28.97,NW,315,0.0,0.0,55,0.00,,,0.00,WSDL version 420,2013-02-11 06:01:00,
2013-02-11 00:12:00,52.9,37.1,28.97,NW,315,0.0,0.0,55,0.00,,,0.00,WSDL version 420,2013-02-11 06:12:00,
2013-02-11 00:17:00,53.1,36.7,28.97,NW,315,0.0,0.0,53,0.00,,,0.00,WSDL version 420,2013-02-11 06:17:00,
2013-02-11 00:27:00,52.9,36.8,28.97,NW,325,0.1,1.6,55,0.00,,,0.00,WSDL version 420,2013-02-11 06:27:00,
2013-02-11 00:37:00,52.9,37.6,28.94,NNW,338,0.8,1.6,56,0.00,,,0.00,WSDL version 420,2013-02-11 06:37:00,
2013-02-11 00:48:00,52.9,37.9,28.97,SSW,203,0.0,1.6,57,0.00,,,0.00,WSDL version 420,2013-02-11 06:48:00,
2013-02-11 00:58:00,52.9,37.6,28.97,NW,315,0.0,1.1,56,0.00,,,0.00,WSDL version 420,2013-02-11 06:58:00,
2013-02-11 01:08:00,52.9,38.3,28.97,NNW,338,0.9,1.3,58,0.00,,,0.00,WSDL version 420,2013-02-11 07:08:00,
2013-02-11 01:18:00,53.1,38.2,28.97,NNW,338,0.0,1.3,57,0.00,,,0.00,WSDL version 420,2013-02-11 07:18:00,
2013-02-11 01:29:00,53.1,38.5,29.00,WSW,248,0.0,0.0,58,0.00,,,0.00,WSDL version 420,2013-02-11 07:29:00,
2013-02-11 01:39:00,53.1,38.4,29.00,ENE,68,0.0,1.1,58,0.00,,,0.00,WSDL version 420,2013-02-11 07:39:00,
2013-02-11 01:49:00,52.7,39.2,28.97,ENE,68,0.0,0.0,60,0.00,,,0.00,WSDL version 420,2013-02-11 07:49:00,
2013-02-11 01:59:00,52.6,39.4,28.97,ENE,68,0.0,0.0,61,0.00,,,0.00,WSDL version 420,2013-02-11 07:59:00,
2013-02-11 02:10:00,52.3,39.7,28.97,ENE,68,0.0,0.0,62,0.00,,,0.00,WSDL version 420,2013-02-11 08:10:00,
2013-02-11 02:20:00,52.3,39.7,28.97,ENE,68,0.0,0.0,62,0.00,,,0.00,WSDL version 420,2013-02-11 08:20:00,
2013-02-11 02:30:00,52.5,39.3,28.97,ENE,68,0.0,0.0,61,0.00,,,0.00,WSDL version 420,2013-02-11 08:30:00,
2013-02-11 02:41:00,52.5,39.8,28.97,ENE,68,0.0,0.0,63,0.00,,,0.00,WSDL version 420,2013-02-11 08:41:00,
2013-02-11 02:53:00,52.7,39.8,28.97,ENE,68,0.0,0.0,62,0.00,,,0.00,WSDL version 420,2013-02-11 08:53:00,
2013-02-11 02:58:00,52.7,40.3,28.97,ENE,68,0.0,0.0,64,0.00,,,0.00,WSDL version 420,2013-02-11 08:58:00,
2013-02-11 03:08:00,52.7,40.9,28.97,ENE,68,0.0,0.0,64,0.00,,,0.00,WSDL version 420,2013-02-11 09:08:00,
2013-02-11 03:18:00,52.5,40.0,28.97,ENE,68,0.0,1.1,63,0.00,,,0.00,WSDL version 420,2013-02-11 09:18:00,
2013-02-11 03:28:00,52.2,41.0,28.97,ENE,68,0.0,1.3,66,0.00,,,0.00,WSDL version 420,2013-02-11 09:28:00,
2013-02-11 03:39:00,52.2,40.1,28.97,ENE,68,0.0,0.0,62,0.00,,,0.00,WSDL version 420,2013-02-11 09:39:00,
2013-02-11 03:52:00,52.2,39.1,28.97,NE,45,0.4,1.3,61,0.00,,,0.00,WSDL version 420,2013-02-11 09:52:00,
2013-02-11 03:57:00,52.2,38.9,28.97,NE,45,0.0,1.6,60,0.00,,,0.00,WSDL version 420,2013-02-11 09:57:00,
2013-02-11 04:08:00,51.9,39.4,28.97,NE,45,0.0,0.9,62,0.00,,,0.00,WSDL version 420,2013-02-11 10:08:00,
2013-02-11 04:18:00,52.2,40.0,28.97,NE,45,0.0,0.0,63,0.00,,,0.00,WSDL version 420,2013-02-11 10:18:00,
2013-02-11 04:28:00,51.9,38.9,28.94,NE,45,0.0,0.0,61,0.00,,,0.00,WSDL version 420,2013-02-11 10:28:00,
2013-02-11 04:39:00,51.6,39.0,28.94,NE,45,0.0,1.1,61,0.00,,,0.00,WSDL version 420,2013-02-11 10:39:00,
2013-02-11 04:52:00,51.4,38.1,28.94,NNE,28,0.0,1.3,60,0.00,,,0.00,WSDL version 420,2013-02-11 10:52:00,
2013-02-11 04:57:00,51.4,38.0,28.94,NNE,23,0.0,0.9,60,0.00,,,0.00,WSDL version 420,2013-02-11 10:57:00,
2013-02-11 05:08:00,51.4,37.7,28.94,NNE,23,0.0,0.0,59,0.00,,,0.00,WSDL version 420,2013-02-11 11:08:00,
2013-02-11 05:18:00,50.9,37.8,28.94,NNE,23,0.0,0.0,61,0.00,,,0.00,WSDL version 420,2013-02-11 11:18:00,
2013-02-11 05:28:00,51.4,37.7,28.94,NNE,23,0.0,0.0,59,0.00,,,0.00,WSDL version 420,2013-02-11 11:28:00,
2013-02-11 05:38:00,51.6,37.8,28.94,NNE,23,0.0,0.0,59,0.00,,,0.00,WSDL version 420,2013-02-11 11:38:00,
2013-02-11 05:52:00,51.9,38.0,28.97,NNE,23,0.0,0.0,59,0.00,,,0.00,WSDL version 420,2013-02-11 11:52:00,
2013-02-11 05:57:00,51.7,38.2,28.97,NNE,23,0.0,0.0,61,0.00,,,0.00,WSDL version 420,2013-02-11 11:57:00,
2013-02-11 06:08:00,51.6,38.2,28.97,NNE,23,0.0,0.0,60,0.00,,,0.00,WSDL version 420,2013-02-11 12:08:00,
2013-02-11 06:18:00,51.6,37.8,28.97,NNE,23,0.0,1.1,59,0.00,,,0.00,WSDL version 420,2013-02-11 12:18:00,
2013-02-11 06:28:00,51.8,37.1,28.97,NNE,23,0.0,1.3,57,0.00,,,0.00,WSDL version 420,2013-02-11 12:28:00,
2013-02-11 06:38:00,52.0,36.8,28.97,NNE,23,0.0,0.0,56,0.00,,,0.00,WSDL version 420,2013-02-11 12:38:00,
2013-02-11 06:52:00,52.3,36.2,28.97,NNE,23,0.0,1.3,54,0.00,,,0.00,WSDL version 420,2013-02-11 12:52:00,
2013-02-11 07:07:00,52.7,36.5,28.97,North,360,0.0,1.6,54,0.00,,,0.00,WSDL version 420,2013-02-11 13:07:00,
2013-02-11 07:18:00,52.7,36.5,28.97,NNW,338,0.9,1.3,54,0.00,,,0.00,WSDL version 420,2013-02-11 13:18:00,
2013-02-11 07:28:00,52.6,36.5,28.97,NNE,23,0.0,1.3,55,0.00,,,0.00,WSDL version 420,2013-02-11 13:28:00,
2013-02-11 07:38:00,52.7,37.0,28.97,NNW,338,0.0,1.3,55,0.00,,,0.00,WSDL version 420,2013-02-11 13:38:00,
2013-02-11 08:03:00,53.1,37.3,29.00,North,360,0.0,1.6,55,0.00,,,0.00,WSDL version 420,2013-02-11 14:03:00,
2013-02-11 08:08:00,53.2,37.3,29.00,North,360,0.4,1.3,54,0.00,,,0.00,WSDL version 420,2013-02-11 14:08:00,
2013-02-11 08:18:00,53.6,37.4,29.00,North,360,0.0,1.1,54,0.00,,,0.00,WSDL version 420,2013-02-11 14:18:00,
2013-02-11 08:28:00,54.3,37.1,29.00,North,360,0.0,1.3,52,0.00,,,0.00,WSDL version 420,2013-02-11 14:28:00,
2013-02-11 08:38:00,55.3,37.5,29.00,NE,45,0.0,1.3,51,0.00,,,0.00,WSDL version 420,2013-02-11 14:38:00,
2013-02-11 09:03:00,56.1,37.2,29.00,North,360,0.6,2.2,49,0.00,,,0.00,WSDL version 420,2013-02-11 15:03:00,
2013-02-11 09:08:00,56.1,37.0,29.00,NE,45,0.6,2.2,48,0.00,,,0.00,WSDL version 420,2013-02-11 15:08:00,
2013-02-11 09:18:00,56.1,36.7,29.03,NNE,23,1.2,2.2,48,0.00,,,0.00,WSDL version 420,2013-02-11 15:18:00,
2013-02-11 09:30:00,56.1,35.8,29.03,NE,53,1.9,4.3,46,0.00,,,0.00,WSDL version 420,2013-02-11 15:30:00,
2013-02-11 09:41:00,56.6,35.6,29.03,NNE,20,1.3,3.8,45,0.00,,,0.00,WSDL version 420,2013-02-11 15:41:00,
2013-02-11 09:46:00,56.8,35.7,29.03,ENE,59,1.6,2.9,45,0.00,,,0.00,WSDL version 420,2013-02-11 15:46:00,
2013-02-11 09:51:00,57.0,35.8,29.03,NE,43,1.6,2.9,44,0.00,,,0.00,WSDL version 420,2013-02-11 15:51:00,
2013-02-11 10:01:00,58.6,35.5,29.03,ENE,59,3.0,5.8,42,0.00,,,0.00,WSDL version 420,2013-02-11 16:01:00,
2013-02-11 10:11:00,58.9,35.2,29.03,NE,48,2.5,4.3,40,0.00,,,0.00,WSDL version 420,2013-02-11 16:11:00,
2013-02-11 10:21:00,60.0,34.9,29.03,NNE,30,3.0,6.0,38,0.00,,,0.00,WSDL version 420,2013-02-11 16:21:00,
2013-02-11 10:26:00,61.3,35.8,29.03,NE,56,2.5,6.0,38,0.00,,,0.00,WSDL version 420,2013-02-11 16:26:00,
2013-02-11 10:31:00,61.4,35.5,29.03,ENE,68,3.1,5.6,37,0.00,,,0.00,WSDL version 420,2013-02-11 16:31:00,
2013-02-11 10:36:00,61.1,34.6,29.03,NE,50,2.7,6.0,37,0.00,,,0.00,WSDL version 420,2013-02-11 16:36:00,
2013-02-11 10:41:00,60.3,35.0,29.03,NE,48,2.4,6.0,39,0.00,,,0.00,WSDL version 420,2013-02-11 16:41:00,
2013-02-11 10:46:00,59.2,34.4,29.03,NE,35,2.2,4.3,40,0.00,,,0.00,WSDL version 420,2013-02-11 16:46:00,
2013-02-11 10:51:00,58.6,34.5,29.03,NE,48,1.5,4.3,41,0.00,,,0.00,WSDL version 420,2013-02-11 16:51:00,
2013-02-11 10:56:00,58.5,34.5,29.03,NE,55,2.4,5.6,41,0.00,,,0.00,WSDL version 420,2013-02-11 16:56:00,
2013-02-11 11:01:00,59.1,35.5,29.03,East,93,2.3,5.6,41,0.00,,,0.00,WSDL version 420,2013-02-11 17:01:00,
2013-02-11 11:06:00,59.0,35.6,29.03,NE,50,2.1,4.7,42,0.00,,,0.00,WSDL version 420,2013-02-11 17:06:00,
2013-02-11 11:11:00,58.3,35.8,29.03,NE,43,2.5,4.7,43,0.00,,,0.00,WSDL version 420,2013-02-11 17:11:00,
2013-02-11 11:16:00,58.1,36.2,29.03,NE,51,2.3,4.7,44,0.00,,,0.00,WSDL version 420,2013-02-11 17:16:00,
2013-02-11 11:21:00,58.1,36.3,29.03,NE,55,2.4,4.5,44,0.00,,,0.00,WSDL version 420,2013-02-11 17:21:00,
2013-02-11 11:26:00,58.1,36.3,29.03,NE,39,2.3,4.0,44,0.00,,,0.00,WSDL version 420,2013-02-11 17:26:00,
2013-02-11 11:31:00,58.1,35.7,29.03,NE,38,2.8,5.4,43,0.00,,,0.00,WSDL version 420,2013-02-11 17:31:00,
2013-02-11 11:36:00,58.1,35.7,29.03,NE,45,3.2,5.6,43,0.00,,,0.00,WSDL version 420,2013-02-11 17:36:00,
2013-02-11 11:41:00,58.0,36.2,29.03,NE,50,2.6,5.6,44,0.00,,,0.00,WSDL version 420,2013-02-11 17:41:00,
2013-02-11 11:46:00,58.4,36.6,29.03,NE,55,3.0,4.7,44,0.00,,,0.00,WSDL version 420,2013-02-11 17:46:00,
2013-02-11 11:51:00,60.0,37.2,29.03,NE,39,2.9,4.7,42,0.00,,,0.00,WSDL version 420,2013-02-11 17:51:00,
2013-02-11 11:56:00,60.5,37.3,29.03,NNE,33,2.9,6.3,42,0.00,,,0.00,WSDL version 420,2013-02-11 17:56:00,
2013-02-11 12:01:00,60.3,36.9,29.03,NE,48,1.5,6.3,42,0.00,,,0.00,WSDL version 420,2013-02-11 18:01:00,
2013-02-11 12:06:00,60.1,37.1,29.03,NNE,33,2.0,4.0,43,0.00,,,0.00,WSDL version 420,2013-02-11 18:06:00,
2013-02-11 12:11:00,60.1,38.5,29.03,NE,34,1.8,4.0,45,0.00,,,0.00,WSDL version 420,2013-02-11 18:11:00,
2013-02-11 12:16:00,59.8,38.8,29.03,NE,38,1.3,4.0,46,0.00,,,0.00,WSDL version 420,2013-02-11 18:16:00,
2013-02-11 12:21:00,59.5,38.7,29.03,NNE,31,1.9,4.0,46,0.00,,,0.00,WSDL version 420,2013-02-11 18:21:00,
2013-02-11 12:26:00,59.4,39.1,29.03,NNE,14,1.8,4.7,47,0.00,,,0.00,WSDL version 420,2013-02-11 18:26:00,
2013-02-11 12:31:00,58.9,38.8,29.03,NNE,23,1.8,4.7,47,0.00,,,0.00,WSDL version 420,2013-02-11 18:31:00,
2013-02-11 12:36:00,58.4,38.6,29.03,NE,34,2.5,3.4,48,0.00,,,0.00,WSDL version 420,2013-02-11 18:36:00,
2013-02-11 12:41:00,58.1,38.6,29.03,NE,55,1.2,3.4,48,0.00,,,0.00,WSDL version 420,2013-02-11 18:41:00,
2013-02-11 12:46:00,57.9,38.3,29.03,NW,326,1.2,3.4,48,0.00,,,0.00,WSDL version 420,2013-02-11 18:46:00,
2013-02-11 12:51:00,57.6,38.1,29.03,ENE,58,1.0,2.5,48,0.00,,,0.00,WSDL version 420,2013-02-11 18:51:00,
2013-02-11 12:56:00,57.1,38.6,29.03,NNE,25,0.4,2.5,51,0.00,,,0.00,WSDL version 420,2013-02-11 18:56:00,
2013-02-11 13:01:00,56.4,38.9,29.03,ENE,73,0.1,2.0,53,0.00,,,0.00,WSDL version 420,2013-02-11 19:01:00,
2013-02-11 13:06:00,56.3,39.8,29.03,NNE,30,1.1,2.2,54,0.00,,,0.00,WSDL version 420,2013-02-11 19:06:00,
2013-02-11 13:11:00,56.4,40.9,29.03,NE,37,1.6,2.9,58,0.00,,,0.00,WSDL version 420,2013-02-11 19:11:00,
2013-02-11 13:16:00,57.0,43.5,29.00,ENE,63,1.6,3.6,61,0.00,,,0.00,WSDL version 420,2013-02-11 19:16:00,
2013-02-11 13:21:00,57.7,44.3,29.00,NE,53,2.5,4.7,61,0.00,,,0.00,WSDL version 420,2013-02-11 19:21:00,
2013-02-11 13:26:00,57.7,44.1,29.00,NNE,33,3.0,4.7,60,0.00,,,0.00,WSDL version 420,2013-02-11 19:26:00,
2013-02-11 13:31:00,57.6,43.6,29.00,NE,40,3.7,4.7,59,0.00,,,0.00,WSDL version 420,2013-02-11 19:31:00,
2013-02-11 13:36:00,57.6,43.1,29.00,NE,48,3.4,5.6,58,0.00,,,0.00,WSDL version 420,2013-02-11 19:36:00,
2013-02-11 13:41:00,57.4,42.7,29.00,NNE,15,2.4,6.0,58,0.00,,,0.00,WSDL version 420,2013-02-11 19:41:00,
2013-02-11 13:46:00,57.1,42.5,28.97,NE,39,3.6,6.0,58,0.00,,,0.00,WSDL version 420,2013-02-11 19:46:00,
2013-02-11 13:51:00,56.7,42.1,28.97,NE,53,2.6,5.4,58,0.00,,,0.00,WSDL version 420,2013-02-11 19:51:00,
2013-02-11 13:56:00,56.3,41.8,28.97,NE,48,2.2,4.3,58,0.00,,,0.00,WSDL version 420,2013-02-11 19:56:00,
2013-02-11 14:01:00,56.4,41.8,28.97,NE,43,2.6,4.7,58,0.00,,,0.00,WSDL version 420,2013-02-11 20:01:00,
2013-02-11 14:06:00,56.2,41.7,28.97,NE,45,3.0,5.6,59,0.00,,,0.00,WSDL version 420,2013-02-11 20:06:00,
2013-02-11 14:16:00,55.6,41.1,28.97,ENE,58,3.0,5.6,58,0.00,,,0.00,WSDL version 420,2013-02-11 20:16:00,
2013-02-11 14:21:00,55.4,41.1,28.97,NE,53,2.1,5.6,59,0.00,,,0.00,WSDL version 420,2013-02-11 20:21:00,
2013-02-11 14:26:00,55.4,41.5,28.97,NE,50,1.8,4.9,60,0.00,,,0.00,WSDL version 420,2013-02-11 20:26:00,
2013-02-11 14:31:00,55.3,41.7,28.97,NE,34,2.5,4.0,60,0.00,,,0.00,WSDL version 420,2013-02-11 20:31:00,
2013-02-11 14:36:00,55.1,41.8,28.97,NE,43,1.6,4.3,61,0.00,,,0.00,WSDL version 420,2013-02-11 20:36:00,
2013-02-11 14:41:00,54.9,41.7,28.97,NE,35,2.3,4.3,61,0.00,,,0.00,WSDL version 420,2013-02-11 20:41:00,
2013-02-11 14:46:00,54.8,42.0,28.97,NE,45,2.3,3.6,62,0.00,,,0.00,WSDL version 420,2013-02-11 20:46:00,
2013-02-11 14:51:00,54.5,41.5,28.97,NE,38,1.6,4.0,61,0.00,,,0.00,WSDL version 420,2013-02-11 20:51:00,
2013-02-11 14:56:00,54.6,41.4,28.97,NNE,31,1.4,4.0,61,0.00,,,0.00,WSDL version 420,2013-02-11 20:56:00,
2013-02-11 15:01:00,54.5,41.3,28.97,NE,43,1.9,3.1,61,0.00,,,0.00,WSDL version 420,2013-02-11 21:01:00,
2013-02-11 15:06:00,54.5,41.3,28.97,NE,53,2.2,3.4,61,0.00,,,0.00,WSDL version 420,2013-02-11 21:06:00,
2013-02-11 15:11:00,54.5,41.3,28.97,NE,48,2.2,4.9,61,0.00,,,0.00,WSDL version 420,2013-02-11 21:11:00,
2013-02-11 15:16:00,54.5,41.3,28.97,NE,35,2.7,5.4,61,0.00,,,0.00,WSDL version 420,2013-02-11 21:16:00,
2013-02-11 15:21:00,54.3,40.9,28.97,ENE,62,2.4,5.4,60,0.00,,,0.00,WSDL version 420,2013-02-11 21:21:00,
2013-02-11 15:26:00,54.1,40.7,28.97,NE,43,2.9,5.4,61,0.00,,,0.00,WSDL version 420,2013-02-11 21:26:00,
2013-02-11 15:31:00,54.1,41.0,28.97,NE,51,2.4,4.7,61,0.00,,,0.00,WSDL version 420,2013-02-11 21:31:00,
2013-02-11 15:36:00,54.1,41.1,28.97,NE,40,3.0,4.3,61,0.00,,,0.00,WSDL version 420,2013-02-11 21:36:00,
2013-02-11 15:41:00,54.0,40.8,28.97,NNE,31,1.8,4.9,61,0.00,,,0.00,WSDL version 420,2013-02-11 21:41:00,
2013-02-11 15:51:00,54.0,40.8,28.97,NE,48,2.4,4.0,61,0.00,,,0.00,WSDL version 420,2013-02-11 21:51:00,
2013-02-11 15:56:00,54.0,40.7,28.97,NNE,28,2.1,4.0,60,0.00,,,0.00,WSDL version 420,2013-02-11 21:56:00,
2013-02-11 16:01:00,54.1,40.8,28.97,NE,35,2.0,4.0,60,0.00,,,0.00,WSDL version 420,2013-02-11 22:01:00,
2013-02-11 16:12:00,54.2,40.9,28.97,NNE,30,1.9,3.8,60,0.00,,,0.00,WSDL version 420,2013-02-11 22:12:00,
2013-02-11 16:17:00,54.1,40.6,28.97,NE,42,2.1,3.4,60,0.00,,,0.00,WSDL version 420,2013-02-11 22:17:00,
2013-02-11 16:27:00,54.1,40.6,28.97,NE,45,2.3,4.9,61,0.00,,,0.00,WSDL version 420,2013-02-11 22:27:00,
2013-02-11 16:37:00,54.1,40.6,28.97,NNE,20,2.2,4.0,60,0.00,,,0.00,WSDL version 420,2013-02-11 22:37:00,
2013-02-11 16:42:00,54.1,40.6,28.97,NE,50,1.7,3.1,60,0.00,,,0.00,WSDL version 420,2013-02-11 22:42:00,
2013-02-11 16:47:00,54.3,40.7,28.97,NE,42,2.2,3.6,60,0.00,,,0.00,WSDL version 420,2013-02-11 22:47:00,
2013-02-11 16:57:00,54.2,40.6,28.97,NNE,25,2.1,3.8,60,0.00,,,0.00,WSDL version 420,2013-02-11 22:57:00,
2013-02-11 17:08:00,54.0,40.4,28.97,ENE,62,1.6,3.8,60,0.00,,,0.00,WSDL version 420,2013-02-11 23:08:00,
2013-02-11 17:18:00,54.0,40.4,28.97,NE,42,1.5,4.9,60,0.00,,,0.00,WSDL version 420,2013-02-11 23:18:00,
2013-02-11 17:28:00,53.9,40.4,28.97,NNE,13,1.6,4.7,60,0.00,,,0.00,WSDL version 420,2013-02-11 23:28:00,
2013-02-11 17:38:00,53.8,40.7,28.97,NE,48,1.1,3.4,61,0.00,,,0.00,WSDL version 420,2013-02-11 23:38:00,
2013-02-11 17:43:00,53.7,40.6,28.97,NE,50,2.0,3.4,61,0.00,,,0.00,WSDL version 420,2013-02-11 23:43:00,
2013-02-11 17:48:00,53.6,40.9,28.97,NE,42,2.6,5.8,62,0.00,,,0.00,WSDL version 420,2013-02-11 23:48:00,
2013-02-11 17:59:00,53.3,40.7,28.97,NE,42,2.1,4.3,62,0.00,,,0.00,WSDL version 420,2013-02-11 23:59:00,
2013-02-11 18:09:00,53.1,40.6,28.97,NE,38,1.1,3.6,63,0.00,,,0.00,WSDL version 420,2013-02-12 00:09:00,
2013-02-11 18:19:00,53.0,40.8,28.97,NE,51,1.6,3.1,63,0.00,,,0.00,WSDL version 420,2013-02-12 00:19:00,
2013-02-11 18:30:00,52.9,41.1,28.97,NE,40,1.3,2.2,64,0.00,,,0.00,WSDL version 420,2013-02-12 00:30:00,
2013-02-11 18:42:00,52.9,41.8,28.97,NE,35,1.3,2.9,66,0.00,,,0.00,WSDL version 420,2013-02-12 00:42:00,
2013-02-11 18:47:00,52.9,41.8,28.97,NE,55,0.9,2.0,66,0.00,,,0.00,WSDL version 420,2013-02-12 00:47:00,
2013-02-11 18:57:00,52.7,42.1,28.97,NNE,25,2.2,3.1,68,0.00,,,0.00,WSDL version 420,2013-02-12 00:57:00,
2013-02-11 19:07:00,52.5,42.7,28.97,NE,37,1.6,3.4,69,0.00,,,0.00,WSDL version 420,2013-02-12 01:07:00,
2013-02-11 19:17:00,52.4,42.5,28.97,NE,39,2.0,3.6,69,0.00,,,0.00,WSDL version 420,2013-02-12 01:17:00,
2013-02-11 19:28:00,52.3,42.4,28.97,NNE,17,1.6,3.1,69,0.00,,,0.00,WSDL version 420,2013-02-12 01:28:00,
2013-02-11 19:38:00,52.2,42.3,28.97,NE,45,1.9,3.6,69,0.00,,,0.00,WSDL version 420,2013-02-12 01:38:00,
2013-02-11 19:43:00,52.0,42.2,28.97,NNE,30,1.5,3.6,69,0.00,,,0.00,WSDL version 420,2013-02-12 01:43:00,
2013-02-11 19:48:00,52.0,42.1,28.97,NNE,23,0.4,3.6,69,0.00,,,0.00,WSDL version 420,2013-02-12 01:48:00,
2013-02-11 19:58:00,52.0,42.1,28.97,NNE,25,2.1,3.1,69,0.00,,,0.00,WSDL version 420,2013-02-12 01:58:00,
2013-02-11 20:09:00,52.0,42.1,28.97,NNE,33,1.6,2.9,69,0.00,,,0.00,WSDL version 420,2013-02-12 02:09:00,
2013-02-11 20:19:00,51.8,42.0,28.97,NE,37,2.1,4.0,69,0.00,,,0.00,WSDL version 420,2013-02-12 02:19:00,
2013-02-11 20:29:00,51.6,41.8,28.97,NE,45,2.0,4.3,69,0.00,,,0.00,WSDL version 420,2013-02-12 02:29:00,
2013-02-11 20:39:00,51.5,41.7,28.97,ENE,71,2.3,3.8,69,0.00,,,0.00,WSDL version 420,2013-02-12 02:39:00,
2013-02-11 20:44:00,51.4,41.6,28.97,NE,45,2.2,4.7,69,0.00,,,0.00,WSDL version 420,2013-02-12 02:44:00,
2013-02-11 20:49:00,51.4,41.5,28.97,NE,51,1.7,4.7,69,0.00,,,0.00,WSDL version 420,2013-02-12 02:49:00,
2013-02-11 21:00:00,51.3,41.5,28.97,NE,39,1.6,6.3,69,0.00,,,0.00,WSDL version 420,2013-02-12 03:00:00,
2013-02-11 21:10:00,51.1,41.3,28.97,NE,35,1.9,4.7,69,0.00,,,0.00,WSDL version 420,2013-02-12 03:10:00,
2013-02-11 21:20:00,51.0,41.2,28.97,NE,48,2.6,4.0,69,0.00,,,0.00,WSDL version 420,2013-02-12 03:20:00,
2013-02-11 21:30:00,50.9,41.1,28.97,NNE,25,1.5,3.6,69,0.00,,,0.00,WSDL version 420,2013-02-12 03:30:00,
2013-02-11 21:41:00,50.7,40.9,28.97,ENE,58,1.9,3.6,69,0.00,,,0.00,WSDL version 420,2013-02-12 03:41:00,
2013-02-11 21:46:00,50.7,40.9,28.97,NE,48,2.8,4.3,69,0.00,,,0.00,WSDL version 420,2013-02-12 03:46:00,
2013-02-11 21:51:00,50.6,40.8,28.97,NE,48,2.7,4.3,69,0.00,,,0.00,WSDL version 420,2013-02-12 03:51:00,
2013-02-11 22:01:00,50.5,40.8,28.94,ENE,71,2.5,3.4,69,0.00,,,0.00,WSDL version 420,2013-02-12 04:01:00,
2013-02-11 22:11:00,50.5,40.8,28.94,NNE,33,1.6,3.4,69,0.00,,,0.00,WSDL version 420,2013-02-12 04:11:00,
2013-02-11 22:16:00,50.5,40.9,28.97,ENE,60,3.1,4.3,70,0.00,,,0.00,WSDL version 420,2013-02-12 04:16:00,
2013-02-11 22:21:00,50.5,41.1,28.97,NE,56,1.6,4.3,70,0.00,,,0.00,WSDL version 420,2013-02-12 04:21:00,
2013-02-11 22:26:00,50.5,41.1,28.97,NE,35,1.0,3.4,70,0.00,,,0.00,WSDL version 420,2013-02-12 04:26:00,
2013-02-11 22:31:00,50.5,41.1,28.94,NE,37,1.1,3.1,70,0.00,,,0.00,WSDL version 420,2013-02-12 04:31:00,
2013-02-11 22:36:00,50.5,41.1,28.94,NE,48,1.0,2.9,70,0.00,,,0.00,WSDL version 420,2013-02-12 04:36:00,
2013-02-11 22:41:00,50.4,41.0,28.94,NNE,29,1.7,4.3,70,0.00,,,0.00,WSDL version 420,2013-02-12 04:41:00,
2013-02-11 22:46:00,50.4,41.0,28.94,NNE,28,1.5,4.3,70,0.00,,,0.00,WSDL version 420,2013-02-12 04:46:00,
2013-02-11 22:51:00,50.4,41.0,28.94,NNE,30,1.4,3.4,70,0.00,,,0.00,WSDL version 420,2013-02-12 04:51:00,
2013-02-11 22:56:00,50.4,41.3,28.94,NE,45,1.6,3.1,71,0.00,,,0.00,WSDL version 420,2013-02-12 04:56:00,
2013-02-11 23:01:00,50.4,41.3,28.94,ENE,58,1.2,3.1,71,0.00,,,0.00,WSDL version 420,2013-02-12 05:01:00,
2013-02-11 23:06:00,50.2,41.2,28.94,NE,53,1.5,3.4,71,0.00,,,0.00,WSDL version 420,2013-02-12 05:06:00,
2013-02-11 23:11:00,50.2,41.2,28.94,NE,40,1.2,3.4,71,0.00,,,0.00,WSDL version 420,2013-02-12 05:11:00,
2013-02-11 23:22:00,50.2,41.2,28.94,ENE,60,1.7,3.1,71,0.00,,,0.00,WSDL version 420,2013-02-12 05:22:00,
2013-02-11 23:27:00,50.2,41.4,28.94,ENE,62,1.7,3.8,72,0.00,,,0.00,WSDL version 420,2013-02-12 05:27:00,
2013-02-11 23:37:00,50.1,41.4,28.94,NE,48,1.9,3.4,72,0.00,,,0.00,WSDL version 420,2013-02-12 05:37:00,
2013-02-11 23:42:00,50.0,41.3,28.94,NE,37,1.2,3.4,72,0.00,,,0.00,WSDL version 420,2013-02-12 05:42:00,
2013-02-11 23:47:00,50.0,41.7,28.94,NE,38,1.1,3.4,73,0.00,,,0.00,WSDL version 420,2013-02-12 05:47:00,
2013-02-11 23:57:00,49.8,41.5,28.94,NE,39,1.3,4.0,73,0.00,,,0.00,WSDL version 420,2013-02-12 05:57:00,